sensor_id;sensor_type;location;lat;lon;timestamp;P1;P2;P0
47810;PMS5003;33575;52.600;7.318;2022-08-19T00:00:44;13;13;
47810;PMS5003;33575;52.600;7.318;2022-08-19T00:03:14;12;11;
47810;PMS5003;33575;52.600;7.318;2022-08-19T00:05:44;12;12;
47810;PMS5003;33575;52.600;7.318;2022-08-19T00:08:14;9;9;
47810;PMS5003;33575;52.600;7.318;2022-08-19T00:10:45;12;11;
47810;PMS5003;33575;52.600;7.318;2022-08-19T00:13:15;12;9;
47810;PMS5003;33575;52.600;7.318;2022-08-19T00:15:45;12;11;
47810;PMS5003;33575;52.600;7.318;2022-08-19T00:18:16;11;11;
47810;PMS5003;33575;52.600;7.318;2022-08-19T00:20:46;11;11;
47810;PMS5003;33575;52.600;7.318;2022-08-19T00:23:16;13;13;
47810;PMS5003;33575;52.600;7.318;2022-08-19T00:25:49;13;13;
47810;PMS5003;33575;52.600;7.318;2022-08-19T00:28:17;11;10;
47810;PMS5003;33575;52.600;7.318;2022-08-19T00:30:48;12;12;
47810;PMS5003;33575;52.600;7.318;2022-08-19T00:33:18;11;11;
47810;PMS5003;33575;52.600;7.318;2022-08-19T00:35:54;11;10;
47810;PMS5003;33575;52.600;7.318;2022-08-19T00:38:24;11;11;
47810;PMS5003;33575;52.600;7.318;2022-08-19T00:40:49;10;10;
47810;PMS5003;33575;52.600;7.318;2022-08-19T00:43:21;13;12;
47810;PMS5003;33575;52.600;7.318;2022-08-19T00:45:50;11;10;
47810;PMS5003;33575;52.600;7.318;2022-08-19T00:48:20;11;11;
47810;PMS5003;33575;52.600;7.318;2022-08-19T00:50:52;11;11;
47810;PMS5003;33575;52.600;7.318;2022-08-19T00:53:23;13;12;
47810;PMS5003;33575;52.600;7.318;2022-08-19T00:55:53;10;10;
47810;PMS5003;33575;52.600;7.318;2022-08-19T00:58:23;15;12;
47810;PMS5003;33575;52.600;7.318;2022-08-19T01:00:52;13;13;
47810;PMS5003;33575;52.600;7.318;2022-08-19T01:03:22;15;14;
47810;PMS5003;33575;52.600;7.318;2022-08-19T01:05:53;14;14;
47810;PMS5003;33575;52.600;7.318;2022-08-19T01:08:24;15;14;
47810;PMS5003;33575;52.600;7.318;2022-08-19T01:10:56;13;13;
47810;PMS5003;33575;52.600;7.318;2022-08-19T01:13:25;12;11;
47810;PMS5003;33575;52.600;7.318;2022-08-19T01:15:57;11;10;
47810;PMS5003;33575;52.600;7.318;2022-08-19T01:18:25;11;11;
47810;PMS5003;33575;52.600;7.318;2022-08-19T01:20:56;16;15;
47810;PMS5003;33575;52.600;7.318;2022-08-19T01:23:27;14;12;
47810;PMS5003;33575;52.600;7.318;2022-08-19T01:25:59;14;13;
47810;PMS5003;33575;52.600;7.318;2022-08-19T01:28:32;14;13;
47810;PMS5003;33575;52.600;7.318;2022-08-19T01:30:58;10;9;
47810;PMS5003;33575;52.600;7.318;2022-08-19T01:33:28;15;14;
47810;PMS5003;33575;52.600;7.318;2022-08-19T01:38:30;12;11;
47810;PMS5003;33575;52.600;7.318;2022-08-19T01:41:01;14;11;
47810;PMS5003;33575;52.600;7.318;2022-08-19T01:43:30;15;15;
47810;PMS5003;33575;52.600;7.318;2022-08-19T01:46:00;17;16;
47810;PMS5003;33575;52.600;7.318;2022-08-19T01:48:34;13;12;
47810;PMS5003;33575;52.600;7.318;2022-08-19T01:51:01;14;14;
47810;PMS5003;33575;52.600;7.318;2022-08-19T01:53:34;13;12;
47810;PMS5003;33575;52.600;7.318;2022-08-19T01:56:03;13;13;
47810;PMS5003;33575;52.600;7.318;2022-08-19T01:58:34;14;14;
47810;PMS5003;33575;52.600;7.318;2022-08-19T02:01:03;13;13;
47810;PMS5003;33575;52.600;7.318;2022-08-19T02:03:34;20;18;
47810;PMS5003;33575;52.600;7.318;2022-08-19T02:06:04;14;14;
47810;PMS5003;33575;52.600;7.318;2022-08-19T02:08:35;12;12;
47810;PMS5003;33575;52.600;7.318;2022-08-19T02:11:04;14;14;
47810;PMS5003;33575;52.600;7.318;2022-08-19T02:13:34;14;13;
47810;PMS5003;33575;52.600;7.318;2022-08-19T02:16:05;16;16;
47810;PMS5003;33575;52.600;7.318;2022-08-19T02:18:35;14;13;
47810;PMS5003;33575;52.600;7.318;2022-08-19T02:21:05;13;12;
47810;PMS5003;33575;52.600;7.318;2022-08-19T02:23:36;13;13;
47810;PMS5003;33575;52.600;7.318;2022-08-19T02:26:06;12;12;
47810;PMS5003;33575;52.600;7.318;2022-08-19T02:28:36;13;12;
47810;PMS5003;33575;52.600;7.318;2022-08-19T02:31:08;14;13;
47810;PMS5003;33575;52.600;7.318;2022-08-19T02:33:38;13;13;
47810;PMS5003;33575;52.600;7.318;2022-08-19T02:36:09;13;12;
47810;PMS5003;33575;52.600;7.318;2022-08-19T02:38:39;12;12;
47810;PMS5003;33575;52.600;7.318;2022-08-19T02:41:12;14;14;
47810;PMS5003;33575;52.600;7.318;2022-08-19T02:43:39;15;14;
47810;PMS5003;33575;52.600;7.318;2022-08-19T02:46:11;12;12;
47810;PMS5003;33575;52.600;7.318;2022-08-19T02:48:40;13;13;
47810;PMS5003;33575;52.600;7.318;2022-08-19T02:51:15;14;14;
47810;PMS5003;33575;52.600;7.318;2022-08-19T02:53:41;13;13;
47810;PMS5003;33575;52.600;7.318;2022-08-19T02:56:11;12;12;
47810;PMS5003;33575;52.600;7.318;2022-08-19T02:58:43;10;10;
47810;PMS5003;33575;52.600;7.318;2022-08-19T03:03:42;11;11;
47810;PMS5003;33575;52.600;7.318;2022-08-19T03:06:14;10;10;
47810;PMS5003;33575;52.600;7.318;2022-08-19T03:08:44;8;8;
47810;PMS5003;33575;52.600;7.318;2022-08-19T03:11:14;13;13;
47810;PMS5003;33575;52.600;7.318;2022-08-19T03:13:43;12;11;
47810;PMS5003;33575;52.600;7.318;2022-08-19T03:16:14;11;10;
47810;PMS5003;33575;52.600;7.318;2022-08-19T03:18:44;11;11;
47810;PMS5003;33575;52.600;7.318;2022-08-19T03:21:15;13;13;
47810;PMS5003;33575;52.600;7.318;2022-08-19T03:23:45;9;9;
47810;PMS5003;33575;52.600;7.318;2022-08-19T03:26:17;9;9;
47810;PMS5003;33575;52.600;7.318;2022-08-19T03:28:50;10;10;
47810;PMS5003;33575;52.600;7.318;2022-08-19T03:31:21;9;9;
47810;PMS5003;33575;52.600;7.318;2022-08-19T03:33:46;9;9;
47810;PMS5003;33575;52.600;7.318;2022-08-19T03:36:18;13;11;
47810;PMS5003;33575;52.600;7.318;2022-08-19T03:38:47;15;14;
47810;PMS5003;33575;52.600;7.318;2022-08-19T03:41:18;12;12;
47810;PMS5003;33575;52.600;7.318;2022-08-19T03:43:47;11;11;
47810;PMS5003;33575;52.600;7.318;2022-08-19T03:46:18;12;10;
47810;PMS5003;33575;52.600;7.318;2022-08-19T03:48:49;11;11;
47810;PMS5003;33575;52.600;7.318;2022-08-19T03:51:24;12;12;
47810;PMS5003;33575;52.600;7.318;2022-08-19T03:53:48;9;9;
47810;PMS5003;33575;52.600;7.318;2022-08-19T03:56:19;10;9;
47810;PMS5003;33575;52.600;7.318;2022-08-19T03:58:49;15;12;
47810;PMS5003;33575;52.600;7.318;2022-08-19T04:01:22;10;10;
47810;PMS5003;33575;52.600;7.318;2022-08-19T04:03:50;12;11;
47810;PMS5003;33575;52.600;7.318;2022-08-19T04:06:20;11;10;
47810;PMS5003;33575;52.600;7.318;2022-08-19T04:08:51;10;10;
47810;PMS5003;33575;52.600;7.318;2022-08-19T04:11:21;15;14;
47810;PMS5003;33575;52.600;7.318;2022-08-19T04:13:51;10;10;
47810;PMS5003;33575;52.600;7.318;2022-08-19T04:16:22;15;15;
47810;PMS5003;33575;52.600;7.318;2022-08-19T04:18:51;15;15;
47810;PMS5003;33575;52.600;7.318;2022-08-19T04:21:23;12;12;
47810;PMS5003;33575;52.600;7.318;2022-08-19T04:23:52;20;20;
47810;PMS5003;33575;52.600;7.318;2022-08-19T04:26:24;18;18;
47810;PMS5003;33575;52.600;7.318;2022-08-19T04:28:54;24;23;
47810;PMS5003;33575;52.600;7.318;2022-08-19T04:31:25;17;17;
47810;PMS5003;33575;52.600;7.318;2022-08-19T04:33:55;18;18;
47810;PMS5003;33575;52.600;7.318;2022-08-19T04:36:25;16;16;
47810;PMS5003;33575;52.600;7.318;2022-08-19T04:38:57;19;18;
47810;PMS5003;33575;52.600;7.318;2022-08-19T04:41:26;17;17;
47810;PMS5003;33575;52.600;7.318;2022-08-19T04:43:56;17;13;
47810;PMS5003;33575;52.600;7.318;2022-08-19T04:46:32;17;17;
47810;PMS5003;33575;52.600;7.318;2022-08-19T04:48:57;17;17;
47810;PMS5003;33575;52.600;7.318;2022-08-19T04:51:27;17;17;
47810;PMS5003;33575;52.600;7.318;2022-08-19T04:53:58;16;16;
47810;PMS5003;33575;52.600;7.318;2022-08-19T04:56:28;17;16;
47810;PMS5003;33575;52.600;7.318;2022-08-19T04:58:58;16;15;
47810;PMS5003;33575;52.600;7.318;2022-08-19T05:01:29;22;20;
47810;PMS5003;33575;52.600;7.318;2022-08-19T05:03:59;19;17;
47810;PMS5003;33575;52.600;7.318;2022-08-19T05:06:30;19;18;
47810;PMS5003;33575;52.600;7.318;2022-08-19T05:09:00;17;17;
47810;PMS5003;33575;52.600;7.318;2022-08-19T05:11:31;17;17;
47810;PMS5003;33575;52.600;7.318;2022-08-19T05:14:01;15;15;
47810;PMS5003;33575;52.600;7.318;2022-08-19T05:16:30;16;15;
47810;PMS5003;33575;52.600;7.318;2022-08-19T05:19:01;17;16;
47810;PMS5003;33575;52.600;7.318;2022-08-19T05:21:32;21;19;
47810;PMS5003;33575;52.600;7.318;2022-08-19T05:24:02;15;14;
47810;PMS5003;33575;52.600;7.318;2022-08-19T05:26:32;18;17;
47810;PMS5003;33575;52.600;7.318;2022-08-19T05:29:03;16;14;
47810;PMS5003;33575;52.600;7.318;2022-08-19T05:31:33;20;16;
47810;PMS5003;33575;52.600;7.318;2022-08-19T05:34:08;14;14;
47810;PMS5003;33575;52.600;7.318;2022-08-19T05:36:34;14;14;
47810;PMS5003;33575;52.600;7.318;2022-08-19T05:39:04;14;14;
47810;PMS5003;33575;52.600;7.318;2022-08-19T05:41:36;20;20;
47810;PMS5003;33575;52.600;7.318;2022-08-19T05:44:04;19;19;
47810;PMS5003;33575;52.600;7.318;2022-08-19T05:46:34;20;18;
47810;PMS5003;33575;52.600;7.318;2022-08-19T05:49:04;18;17;
47810;PMS5003;33575;52.600;7.318;2022-08-19T05:51:36;21;19;
47810;PMS5003;33575;52.600;7.318;2022-08-19T05:54:05;22;22;
47810;PMS5003;33575;52.600;7.318;2022-08-19T05:56:35;18;17;
47810;PMS5003;33575;52.600;7.318;2022-08-19T05:59:06;23;20;
47810;PMS5003;33575;52.600;7.318;2022-08-19T06:01:37;17;16;
47810;PMS5003;33575;52.600;7.318;2022-08-19T06:04:07;23;22;
47810;PMS5003;33575;52.600;7.318;2022-08-19T06:06:37;27;27;
47810;PMS5003;33575;52.600;7.318;2022-08-19T06:09:07;23;22;
47810;PMS5003;33575;52.600;7.318;2022-08-19T06:11:39;23;21;
47810;PMS5003;33575;52.600;7.318;2022-08-19T06:14:15;28;27;
47810;PMS5003;33575;52.600;7.318;2022-08-19T06:16:39;20;19;
47810;PMS5003;33575;52.600;7.318;2022-08-19T06:19:10;22;20;
47810;PMS5003;33575;52.600;7.318;2022-08-19T06:21:39;21;20;
47810;PMS5003;33575;52.600;7.318;2022-08-19T06:24:10;22;20;
47810;PMS5003;33575;52.600;7.318;2022-08-19T06:26:41;23;23;
47810;PMS5003;33575;52.600;7.318;2022-08-19T06:29:15;24;24;
47810;PMS5003;33575;52.600;7.318;2022-08-19T06:31:43;24;23;
47810;PMS5003;33575;52.600;7.318;2022-08-19T06:34:11;25;24;
47810;PMS5003;33575;52.600;7.318;2022-08-19T06:36:43;25;24;
47810;PMS5003;33575;52.600;7.318;2022-08-19T06:39:12;24;23;
47810;PMS5003;33575;52.600;7.318;2022-08-19T06:41:48;22;21;
47810;PMS5003;33575;52.600;7.318;2022-08-19T06:44:14;28;28;
47810;PMS5003;33575;52.600;7.318;2022-08-19T06:46:43;21;19;
47810;PMS5003;33575;52.600;7.318;2022-08-19T06:49:13;23;22;
47810;PMS5003;33575;52.600;7.318;2022-08-19T06:51:45;20;19;
47810;PMS5003;33575;52.600;7.318;2022-08-19T06:54:19;24;22;
47810;PMS5003;33575;52.600;7.318;2022-08-19T06:56:45;21;20;
47810;PMS5003;33575;52.600;7.318;2022-08-19T06:59:16;22;21;
47810;PMS5003;33575;52.600;7.318;2022-08-19T07:01:46;24;23;
47810;PMS5003;33575;52.600;7.318;2022-08-19T07:04:18;25;24;
47810;PMS5003;33575;52.600;7.318;2022-08-19T07:06:56;22;21;
47810;PMS5003;33575;52.600;7.318;2022-08-19T07:09:19;19;19;
47810;PMS5003;33575;52.600;7.318;2022-08-19T07:11:48;20;20;
47810;PMS5003;33575;52.600;7.318;2022-08-19T07:14:21;19;19;
47810;PMS5003;33575;52.600;7.318;2022-08-19T07:16:50;19;17;
47810;PMS5003;33575;52.600;7.318;2022-08-19T07:19:21;20;19;
47810;PMS5003;33575;52.600;7.318;2022-08-19T07:21:51;19;18;
47810;PMS5003;33575;52.600;7.318;2022-08-19T07:24:21;20;18;
47810;PMS5003;33575;52.600;7.318;2022-08-19T07:26:53;19;18;
47810;PMS5003;33575;52.600;7.318;2022-08-19T07:29:24;17;17;
47810;PMS5003;33575;52.600;7.318;2022-08-19T07:31:52;18;17;
47810;PMS5003;33575;52.600;7.318;2022-08-19T07:34:23;24;22;
47810;PMS5003;33575;52.600;7.318;2022-08-19T07:36:53;23;20;
47810;PMS5003;33575;52.600;7.318;2022-08-19T07:39:24;20;20;
47810;PMS5003;33575;52.600;7.318;2022-08-19T07:41:53;20;19;
47810;PMS5003;33575;52.600;7.318;2022-08-19T07:44:24;37;36;
47810;PMS5003;33575;52.600;7.318;2022-08-19T07:46:54;60;59;
47810;PMS5003;33575;52.600;7.318;2022-08-19T07:49:24;43;42;
47810;PMS5003;33575;52.600;7.318;2022-08-19T07:51:56;43;43;
47810;PMS5003;33575;52.600;7.318;2022-08-19T07:54:25;35;35;
47810;PMS5003;33575;52.600;7.318;2022-08-19T07:56:56;27;27;
47810;PMS5003;33575;52.600;7.318;2022-08-19T07:59:26;32;30;
47810;PMS5003;33575;52.600;7.318;2022-08-19T08:01:56;27;26;
47810;PMS5003;33575;52.600;7.318;2022-08-19T08:04:27;29;26;
47810;PMS5003;33575;52.600;7.318;2022-08-19T08:06:57;31;30;
47810;PMS5003;33575;52.600;7.318;2022-08-19T08:09:29;30;30;
47810;PMS5003;33575;52.600;7.318;2022-08-19T08:12:04;26;23;
47810;PMS5003;33575;52.600;7.318;2022-08-19T08:14:34;34;33;
47810;PMS5003;33575;52.600;7.318;2022-08-19T08:16:59;31;29;
47810;PMS5003;33575;52.600;7.318;2022-08-19T08:19:30;24;24;
47810;PMS5003;33575;52.600;7.318;2022-08-19T08:22:01;27;26;
47810;PMS5003;33575;52.600;7.318;2022-08-19T08:24:32;28;27;
47810;PMS5003;33575;52.600;7.318;2022-08-19T08:27:01;35;32;
47810;PMS5003;33575;52.600;7.318;2022-08-19T08:29:35;43;42;
47810;PMS5003;33575;52.600;7.318;2022-08-19T08:32:02;30;28;
47810;PMS5003;33575;52.600;7.318;2022-08-19T08:34:32;26;23;
47810;PMS5003;33575;52.600;7.318;2022-08-19T08:37:03;22;20;
47810;PMS5003;33575;52.600;7.318;2022-08-19T08:39:34;23;22;
47810;PMS5003;33575;52.600;7.318;2022-08-19T08:42:11;19;19;
47810;PMS5003;33575;52.600;7.318;2022-08-19T08:44:39;22;21;
47810;PMS5003;33575;52.600;7.318;2022-08-19T08:47:09;22;20;
47810;PMS5003;33575;52.600;7.318;2022-08-19T08:49:38;21;20;
47810;PMS5003;33575;52.600;7.318;2022-08-19T08:52:10;21;19;
47810;PMS5003;33575;52.600;7.318;2022-08-19T08:54:38;19;18;
47810;PMS5003;33575;52.600;7.318;2022-08-19T08:57:09;20;20;
47810;PMS5003;33575;52.600;7.318;2022-08-19T08:59:39;15;15;
47810;PMS5003;33575;52.600;7.318;2022-08-19T09:02:08;21;20;
47810;PMS5003;33575;52.600;7.318;2022-08-19T09:04:41;19;17;
47810;PMS5003;33575;52.600;7.318;2022-08-19T09:07:20;19;17;
47810;PMS5003;33575;52.600;7.318;2022-08-19T09:09:46;20;17;
47810;PMS5003;33575;52.600;7.318;2022-08-19T09:12:14;16;16;
47810;PMS5003;33575;52.600;7.318;2022-08-19T09:14:47;14;13;
47810;PMS5003;33575;52.600;7.318;2022-08-19T09:17:12;18;18;
47810;PMS5003;33575;52.600;7.318;2022-08-19T09:22:12;13;13;
47810;PMS5003;33575;52.600;7.318;2022-08-19T09:24:43;17;16;
47810;PMS5003;33575;52.600;7.318;2022-08-19T09:27:18;14;14;
47810;PMS5003;33575;52.600;7.318;2022-08-19T09:29:44;18;16;
47810;PMS5003;33575;52.600;7.318;2022-08-19T09:32:20;14;13;
47810;PMS5003;33575;52.600;7.318;2022-08-19T09:34:50;13;13;
47810;PMS5003;33575;52.600;7.318;2022-08-19T09:37:15;14;12;
47810;PMS5003;33575;52.600;7.318;2022-08-19T09:39:46;11;11;
47810;PMS5003;33575;52.600;7.318;2022-08-19T09:42:20;11;11;
47810;PMS5003;33575;52.600;7.318;2022-08-19T09:44:46;13;12;
47810;PMS5003;33575;52.600;7.318;2022-08-19T09:47:20;11;11;
47810;PMS5003;33575;52.600;7.318;2022-08-19T09:49:46;13;12;
47810;PMS5003;33575;52.600;7.318;2022-08-19T09:52:17;12;12;
47810;PMS5003;33575;52.600;7.318;2022-08-19T09:54:52;10;9;
47810;PMS5003;33575;52.600;7.318;2022-08-19T09:57:17;7;7;
47810;PMS5003;33575;52.600;7.318;2022-08-19T09:59:47;9;9;
47810;PMS5003;33575;52.600;7.318;2022-08-19T10:02:22;11;11;
47810;PMS5003;33575;52.600;7.318;2022-08-19T10:04:47;13;13;
47810;PMS5003;33575;52.600;7.318;2022-08-19T10:07:18;9;9;
47810;PMS5003;33575;52.600;7.318;2022-08-19T10:09:47;10;10;
47810;PMS5003;33575;52.600;7.318;2022-08-19T10:12:20;9;9;
47810;PMS5003;33575;52.600;7.318;2022-08-19T10:14:48;11;11;
47810;PMS5003;33575;52.600;7.318;2022-08-19T10:17:23;13;13;
47810;PMS5003;33575;52.600;7.318;2022-08-19T10:19:53;18;15;
47810;PMS5003;33575;52.600;7.318;2022-08-19T10:22:18;13;13;
47810;PMS5003;33575;52.600;7.318;2022-08-19T10:24:49;9;9;
47810;PMS5003;33575;52.600;7.318;2022-08-19T10:27:19;10;10;
47810;PMS5003;33575;52.600;7.318;2022-08-19T10:29:49;13;13;
47810;PMS5003;33575;52.600;7.318;2022-08-19T10:32:24;17;17;
47810;PMS5003;33575;52.600;7.318;2022-08-19T10:34:49;60;58;
47810;PMS5003;33575;52.600;7.318;2022-08-19T10:37:24;26;25;
47810;PMS5003;33575;52.600;7.318;2022-08-19T10:39:50;39;39;
47810;PMS5003;33575;52.600;7.318;2022-08-19T10:42:20;23;23;
47810;PMS5003;33575;52.600;7.318;2022-08-19T10:44:52;26;25;
47810;PMS5003;33575;52.600;7.318;2022-08-19T10:47:26;18;17;
47810;PMS5003;33575;52.600;7.318;2022-08-19T10:49:52;22;22;
47810;PMS5003;33575;52.600;7.318;2022-08-19T10:52:27;20;20;
47810;PMS5003;33575;52.600;7.318;2022-08-19T10:54:53;23;22;
47810;PMS5003;33575;52.600;7.318;2022-08-19T10:57:22;21;21;
47810;PMS5003;33575;52.600;7.318;2022-08-19T10:59:53;17;16;
47810;PMS5003;33575;52.600;7.318;2022-08-19T11:02:23;23;23;
47810;PMS5003;33575;52.600;7.318;2022-08-19T11:04:54;15;14;
47810;PMS5003;33575;52.600;7.318;2022-08-19T11:07:24;12;12;
47810;PMS5003;33575;52.600;7.318;2022-08-19T11:09:54;10;10;
47810;PMS5003;33575;52.600;7.318;2022-08-19T11:12:24;12;11;
47810;PMS5003;33575;52.600;7.318;2022-08-19T11:14:55;13;12;
47810;PMS5003;33575;52.600;7.318;2022-08-19T11:17:25;11;10;
47810;PMS5003;33575;52.600;7.318;2022-08-19T11:19:55;9;9;
47810;PMS5003;33575;52.600;7.318;2022-08-19T11:22:30;10;10;
47810;PMS5003;33575;52.600;7.318;2022-08-19T11:24:56;15;14;
47810;PMS5003;33575;52.600;7.318;2022-08-19T11:27:26;13;13;
47810;PMS5003;33575;52.600;7.318;2022-08-19T11:29:56;14;13;
47810;PMS5003;33575;52.600;7.318;2022-08-19T11:32:26;15;13;
47810;PMS5003;33575;52.600;7.318;2022-08-19T11:34:57;11;10;
47810;PMS5003;33575;52.600;7.318;2022-08-19T11:37:27;9;9;
47810;PMS5003;33575;52.600;7.318;2022-08-19T11:39:57;13;12;
47810;PMS5003;33575;52.600;7.318;2022-08-19T11:42:27;11;11;
47810;PMS5003;33575;52.600;7.318;2022-08-19T11:44:57;13;12;
47810;PMS5003;33575;52.600;7.318;2022-08-19T11:47:27;18;18;
47810;PMS5003;33575;52.600;7.318;2022-08-19T11:49:57;13;13;
47810;PMS5003;33575;52.600;7.318;2022-08-19T11:52:27;13;12;
47810;PMS5003;33575;52.600;7.318;2022-08-19T11:54:57;14;13;
47810;PMS5003;33575;52.600;7.318;2022-08-19T11:57:28;12;12;
47810;PMS5003;33575;52.600;7.318;2022-08-19T11:59:58;11;11;
47810;PMS5003;33575;52.600;7.318;2022-08-19T12:02:28;14;14;
47810;PMS5003;33575;52.600;7.318;2022-08-19T12:04:58;13;13;
47810;PMS5003;33575;52.600;7.318;2022-08-19T12:07:28;13;13;
47810;PMS5003;33575;52.600;7.318;2022-08-19T12:09:58;12;11;
47810;PMS5003;33575;52.600;7.318;2022-08-19T12:12:28;15;15;
47810;PMS5003;33575;52.600;7.318;2022-08-19T12:14:58;14;14;
47810;PMS5003;33575;52.600;7.318;2022-08-19T12:17:28;16;15;
47810;PMS5003;33575;52.600;7.318;2022-08-19T12:19:59;24;24;
47810;PMS5003;33575;52.600;7.318;2022-08-19T12:22:29;27;26;
47810;PMS5003;33575;52.600;7.318;2022-08-19T12:24:59;31;29;
47810;PMS5003;33575;52.600;7.318;2022-08-19T12:27:34;31;31;
47810;PMS5003;33575;52.600;7.318;2022-08-19T12:30:00;14;14;
47810;PMS5003;33575;52.600;7.318;2022-08-19T12:32:30;17;16;
47810;PMS5003;33575;52.600;7.318;2022-08-19T12:35:00;14;12;
47810;PMS5003;33575;52.600;7.318;2022-08-19T12:37:30;13;12;
47810;PMS5003;33575;52.600;7.318;2022-08-19T12:40:01;13;12;
47810;PMS5003;33575;52.600;7.318;2022-08-19T12:42:31;14;14;
47810;PMS5003;33575;52.600;7.318;2022-08-19T12:45:01;11;11;
47810;PMS5003;33575;52.600;7.318;2022-08-19T12:47:33;13;13;
47810;PMS5003;33575;52.600;7.318;2022-08-19T12:50:07;14;14;
47810;PMS5003;33575;52.600;7.318;2022-08-19T12:52:32;13;13;
47810;PMS5003;33575;52.600;7.318;2022-08-19T12:55:03;14;14;
47810;PMS5003;33575;52.600;7.318;2022-08-19T12:57:34;13;12;
47810;PMS5003;33575;52.600;7.318;2022-08-19T13:00:07;15;15;
47810;PMS5003;33575;52.600;7.318;2022-08-19T13:02:39;15;13;
47810;PMS5003;33575;52.600;7.318;2022-08-19T13:05:06;15;15;
47810;PMS5003;33575;52.600;7.318;2022-08-19T13:07:34;19;19;
47810;PMS5003;33575;52.600;7.318;2022-08-19T13:10:05;20;20;
47810;PMS5003;33575;52.600;7.318;2022-08-19T13:12:35;22;22;
47810;PMS5003;33575;52.600;7.318;2022-08-19T13:15:10;22;22;
47810;PMS5003;33575;52.600;7.318;2022-08-19T13:17:35;20;19;
47810;PMS5003;33575;52.600;7.318;2022-08-19T13:20:06;17;15;
47810;PMS5003;33575;52.600;7.318;2022-08-19T13:22:36;22;22;
47810;PMS5003;33575;52.600;7.318;2022-08-19T13:25:06;24;23;
47810;PMS5003;33575;52.600;7.318;2022-08-19T13:27:37;17;17;
47810;PMS5003;33575;52.600;7.318;2022-08-19T13:30:08;19;19;
47810;PMS5003;33575;52.600;7.318;2022-08-19T13:32:37;23;22;
47810;PMS5003;33575;52.600;7.318;2022-08-19T13:35:07;21;20;
47810;PMS5003;33575;52.600;7.318;2022-08-19T13:37:37;19;18;
47810;PMS5003;33575;52.600;7.318;2022-08-19T13:40:08;19;19;
47810;PMS5003;33575;52.600;7.318;2022-08-19T13:42:38;17;17;
47810;PMS5003;33575;52.600;7.318;2022-08-19T13:45:09;17;17;
47810;PMS5003;33575;52.600;7.318;2022-08-19T13:47:38;17;17;
47810;PMS5003;33575;52.600;7.318;2022-08-19T13:50:10;16;16;
47810;PMS5003;33575;52.600;7.318;2022-08-19T13:52:39;13;13;
47810;PMS5003;33575;52.600;7.318;2022-08-19T13:55:10;13;13;
47810;PMS5003;33575;52.600;7.318;2022-08-19T13:57:39;17;16;
47810;PMS5003;33575;52.600;7.318;2022-08-19T14:00:11;14;13;
47810;PMS5003;33575;52.600;7.318;2022-08-19T14:02:40;13;13;
47810;PMS5003;33575;52.600;7.318;2022-08-19T14:05:11;12;11;
47810;PMS5003;33575;52.600;7.318;2022-08-19T14:07:41;15;14;
47810;PMS5003;33575;52.600;7.318;2022-08-19T14:10:12;15;14;
47810;PMS5003;33575;52.600;7.318;2022-08-19T14:12:41;13;13;
47810;PMS5003;33575;52.600;7.318;2022-08-19T14:15:11;14;14;
47810;PMS5003;33575;52.600;7.318;2022-08-19T14:17:42;15;14;
47810;PMS5003;33575;52.600;7.318;2022-08-19T14:20:17;18;16;
47810;PMS5003;33575;52.600;7.318;2022-08-19T14:22:42;13;13;
47810;PMS5003;33575;52.600;7.318;2022-08-19T14:25:14;13;13;
47810;PMS5003;33575;52.600;7.318;2022-08-19T14:27:43;15;14;
47810;PMS5003;33575;52.600;7.318;2022-08-19T14:30:15;16;15;
47810;PMS5003;33575;52.600;7.318;2022-08-19T14:32:43;13;13;
47810;PMS5003;33575;52.600;7.318;2022-08-19T14:35:14;16;15;
47810;PMS5003;33575;52.600;7.318;2022-08-19T14:37:46;17;14;
47810;PMS5003;33575;52.600;7.318;2022-08-19T14:40:15;15;14;
47810;PMS5003;33575;52.600;7.318;2022-08-19T14:42:44;13;13;
47810;PMS5003;33575;52.600;7.318;2022-08-19T14:45:14;14;14;
47810;PMS5003;33575;52.600;7.318;2022-08-19T14:47:46;15;15;
47810;PMS5003;33575;52.600;7.318;2022-08-19T14:50:20;22;21;
47810;PMS5003;33575;52.600;7.318;2022-08-19T14:52:46;22;22;
47810;PMS5003;33575;52.600;7.318;2022-08-19T14:55:16;25;25;
47810;PMS5003;33575;52.600;7.318;2022-08-19T14:57:47;24;24;
47810;PMS5003;33575;52.600;7.318;2022-08-19T15:00:17;26;26;
47810;PMS5003;33575;52.600;7.318;2022-08-19T15:02:48;27;27;
47810;PMS5003;33575;52.600;7.318;2022-08-19T15:05:18;32;31;
47810;PMS5003;33575;52.600;7.318;2022-08-19T15:07:48;20;20;
47810;PMS5003;33575;52.600;7.318;2022-08-19T15:10:18;26;26;
47810;PMS5003;33575;52.600;7.318;2022-08-19T15:12:52;28;25;
47810;PMS5003;33575;52.600;7.318;2022-08-19T15:15:19;21;21;
47810;PMS5003;33575;52.600;7.318;2022-08-19T15:17:49;22;22;
47810;PMS5003;33575;52.600;7.318;2022-08-19T15:20:19;25;24;
47810;PMS5003;33575;52.600;7.318;2022-08-19T15:22:50;27;25;
47810;PMS5003;33575;52.600;7.318;2022-08-19T15:25:20;22;19;
47810;PMS5003;33575;52.600;7.318;2022-08-19T15:27:50;19;18;
47810;PMS5003;33575;52.600;7.318;2022-08-19T15:30:21;23;23;
47810;PMS5003;33575;52.600;7.318;2022-08-19T15:32:50;24;24;
47810;PMS5003;33575;52.600;7.318;2022-08-19T15:35:22;20;20;
47810;PMS5003;33575;52.600;7.318;2022-08-19T15:37:52;25;23;
47810;PMS5003;33575;52.600;7.318;2022-08-19T15:40:23;22;21;
47810;PMS5003;33575;52.600;7.318;2022-08-19T15:42:53;25;25;
47810;PMS5003;33575;52.600;7.318;2022-08-19T15:45:24;22;21;
47810;PMS5003;33575;52.600;7.318;2022-08-19T15:47:54;23;22;
47810;PMS5003;33575;52.600;7.318;2022-08-19T15:50:24;26;25;
47810;PMS5003;33575;52.600;7.318;2022-08-19T15:52:59;26;25;
47810;PMS5003;33575;52.600;7.318;2022-08-19T15:55:30;28;26;
47810;PMS5003;33575;52.600;7.318;2022-08-19T15:57:55;25;25;
47810;PMS5003;33575;52.600;7.318;2022-08-19T16:00:27;26;26;
47810;PMS5003;33575;52.600;7.318;2022-08-19T16:02:56;25;23;
47810;PMS5003;33575;52.600;7.318;2022-08-19T16:05:26;28;28;
47810;PMS5003;33575;52.600;7.318;2022-08-19T16:07:57;23;22;
47810;PMS5003;33575;52.600;7.318;2022-08-19T16:10:28;22;22;
47810;PMS5003;33575;52.600;7.318;2022-08-19T16:12:58;23;23;
47810;PMS5003;33575;52.600;7.318;2022-08-19T16:15:29;24;24;
47810;PMS5003;33575;52.600;7.318;2022-08-19T16:17:59;27;26;
47810;PMS5003;33575;52.600;7.318;2022-08-19T16:20:30;25;24;
47810;PMS5003;33575;52.600;7.318;2022-08-19T16:23:00;26;25;
47810;PMS5003;33575;52.600;7.318;2022-08-19T16:25:30;23;21;
47810;PMS5003;33575;52.600;7.318;2022-08-19T16:28:06;25;25;
47810;PMS5003;33575;52.600;7.318;2022-08-19T16:30:31;23;23;
47810;PMS5003;33575;52.600;7.318;2022-08-19T16:33:01;22;22;
47810;PMS5003;33575;52.600;7.318;2022-08-19T16:35:31;24;22;
47810;PMS5003;33575;52.600;7.318;2022-08-19T16:38:02;23;23;
47810;PMS5003;33575;52.600;7.318;2022-08-19T16:40:33;22;21;
47810;PMS5003;33575;52.600;7.318;2022-08-19T16:43:03;19;19;
47810;PMS5003;33575;52.600;7.318;2022-08-19T16:45:33;21;21;